createdAt,value
2023-01-20T00:01:07.061Z,2.30
2023-01-20T00:03:34.740Z,2.35
2023-01-20T00:06:02.567Z,2.30
2023-01-20T00:08:30.190Z,2.33
2023-01-20T00:10:57.929Z,2.55
2023-01-20T00:13:25.571Z,2.20
2023-01-20T00:15:54.548Z,2.50
2023-01-20T00:18:22.207Z,2.25
2023-01-20T00:20:49.804Z,2.30
2023-01-20T00:23:17.429Z,2.47
2023-01-20T00:25:45.096Z,2.20
2023-01-20T00:28:12.741Z,2.30
2023-01-20T00:30:41.919Z,2.38
2023-01-20T00:33:10.930Z,1.87
2023-01-20T00:35:38.616Z,1.97
2023-01-20T00:38:06.273Z,1.97
2023-01-20T00:40:34.091Z,1.93
2023-01-20T00:43:01.701Z,1.70
2023-01-20T00:45:29.359Z,1.70
2023-01-20T00:47:56.978Z,1.70
2023-01-20T00:50:26.096Z,2.03
2023-01-20T00:52:53.750Z,1.80
2023-01-20T00:55:21.356Z,1.80
2023-01-20T00:57:49.006Z,2.17
2023-01-20T01:00:19.253Z,1.80
2023-01-20T01:02:46.887Z,1.93
2023-01-20T01:05:14.851Z,1.57
2023-01-20T01:07:44.065Z,1.60
2023-01-20T01:10:12.213Z,1.63
2023-01-20T01:12:39.869Z,1.70
2023-01-20T01:15:08.394Z,1.67
2023-01-20T01:17:36.088Z,2.00
2023-01-20T01:20:04.153Z,1.73
2023-01-20T01:22:32.568Z,1.83
2023-01-20T01:25:01.606Z,1.70
2023-01-20T01:27:29.537Z,2.00
2023-01-20T01:29:59.751Z,1.53
2023-01-20T01:32:27.475Z,1.70
2023-01-20T01:34:55.239Z,1.80
2023-01-20T01:37:22.905Z,1.63
2023-01-20T01:39:50.695Z,1.60
2023-01-20T01:42:23.642Z,1.90
2023-01-20T01:45:21.567Z,1.60
2023-01-20T01:47:51.647Z,2.10
2023-01-20T01:50:22.835Z,1.67
2023-01-20T01:52:54.133Z,1.70
2023-01-20T01:55:26.821Z,1.70
2023-01-20T01:57:57.671Z,1.60
2023-01-20T02:00:25.455Z,1.90
2023-01-20T02:02:53.749Z,1.77
2023-01-20T02:05:22.866Z,1.60
2023-01-20T02:07:51.065Z,1.53
2023-01-20T02:10:19.285Z,1.60
2023-01-20T02:12:51.187Z,1.70
2023-01-20T02:15:27.100Z,1.43
2023-01-20T02:18:09.480Z,1.53
2023-01-20T02:21:16.319Z,1.60
2023-01-20T02:24:08.477Z,1.97
2023-01-20T02:26:53.966Z,1.60
2023-01-20T02:29:46.138Z,1.50
2023-01-20T02:32:23.805Z,1.40
2023-01-20T02:34:58.732Z,1.50
2023-01-20T02:37:29.704Z,1.33
2023-01-20T02:40:15.604Z,1.70
2023-01-20T02:42:49.565Z,1.67
2023-01-20T02:45:25.278Z,1.60
2023-01-20T02:47:58.540Z,1.27
2023-01-20T02:50:41.819Z,1.80
2023-01-20T02:53:12.049Z,1.70
2023-01-20T02:55:45.264Z,2.07
2023-01-20T02:58:18.065Z,1.50
2023-01-20T03:00:51.574Z,1.63
2023-01-20T03:03:26.216Z,1.50
2023-01-20T03:05:58.249Z,1.40
2023-01-20T03:08:30.619Z,1.70
2023-01-20T03:11:05.108Z,1.50
2023-01-20T03:13:37.114Z,1.50
2023-01-20T03:16:09.498Z,1.63
2023-01-20T03:18:39.955Z,1.47
2023-01-20T03:21:10.078Z,1.60
2023-01-20T03:23:42.602Z,1.60
2023-01-20T03:26:12.676Z,1.50
2023-01-20T03:28:41.641Z,1.50
2023-01-20T03:31:14.954Z,1.50
2023-01-20T03:33:44.695Z,1.30
2023-01-20T03:36:14.276Z,1.60
2023-01-20T03:38:42.680Z,1.43
2023-01-20T03:41:17.987Z,1.63
2023-01-20T03:43:52.089Z,1.20
2023-01-20T03:46:28.574Z,1.40
2023-01-20T03:49:05.297Z,1.27
2023-01-20T03:51:41.310Z,1.50
2023-01-20T03:54:13.512Z,1.33
2023-01-20T03:56:47.722Z,1.30
2023-01-20T03:59:17.174Z,1.40
2023-01-20T04:01:46.069Z,1.40
2023-01-20T04:04:19.794Z,1.10
2023-01-20T04:06:51.423Z,1.20
2023-01-20T04:09:25.121Z,1.33
2023-01-20T04:11:53.146Z,1.30
2023-01-20T04:14:20.839Z,1.77
2023-01-20T04:16:54.533Z,1.30
2023-01-20T04:19:23.993Z,1.40
2023-01-20T04:21:59.833Z,1.50
2023-01-20T04:24:32.294Z,1.47
2023-01-20T04:26:59.945Z,1.30
2023-01-20T04:29:27.564Z,1.60
2023-01-20T04:32:00.209Z,1.37
2023-01-20T04:34:29.677Z,1.30
2023-01-20T04:36:57.440Z,1.47
2023-01-20T04:39:25.161Z,1.47
2023-01-20T04:41:52.791Z,1.40
2023-01-20T04:44:20.464Z,1.47
2023-01-20T04:46:48.206Z,1.60
2023-01-20T04:49:15.988Z,1.30
2023-01-20T04:51:44.981Z,1.50
2023-01-20T04:54:12.956Z,1.37
2023-01-20T04:56:40.570Z,1.50
2023-01-20T04:59:08.290Z,1.40
2023-01-20T05:01:35.994Z,1.20
2023-01-20T05:04:03.767Z,1.50
2023-01-20T05:06:31.420Z,1.40
2023-01-20T05:09:00.403Z,1.50
2023-01-20T05:11:28.036Z,1.30
2023-01-20T05:13:55.699Z,1.20
2023-01-20T05:16:25.996Z,1.50
2023-01-20T05:18:54.888Z,1.47
2023-01-20T05:21:22.556Z,1.30
2023-01-20T05:23:50.211Z,1.27
2023-01-20T05:26:19.201Z,1.23
2023-01-20T05:28:47.366Z,1.13
2023-01-20T05:31:15.143Z,1.27
2023-01-20T05:33:42.837Z,1.30
2023-01-20T05:36:12.151Z,1.30
2023-01-20T05:38:39.766Z,1.37
2023-01-20T05:41:09.225Z,1.20
2023-01-20T05:43:38.745Z,1.30
2023-01-20T05:46:06.949Z,1.47
2023-01-20T05:48:34.745Z,1.10
2023-01-20T05:51:02.370Z,1.40
2023-01-20T05:53:29.988Z,1.10
2023-01-20T05:56:01.965Z,1.47
2023-01-20T05:58:30.512Z,1.50
2023-01-20T06:01:06.927Z,2.07
2023-01-20T06:03:34.736Z,1.33
2023-01-20T06:06:02.432Z,1.20
2023-01-20T06:08:30.445Z,1.30
2023-01-20T06:10:58.080Z,1.40
2023-01-20T06:13:25.748Z,1.50
2023-01-20T06:15:53.969Z,1.17
2023-01-20T06:18:23.697Z,1.30
2023-01-20T06:20:51.693Z,1.50
2023-01-20T06:23:19.741Z,1.50
2023-01-20T06:25:47.390Z,1.00
2023-01-20T06:28:15.024Z,1.30
2023-01-20T06:30:43.252Z,1.20
2023-01-20T06:33:11.439Z,1.30
2023-01-20T06:35:40.408Z,1.30
2023-01-20T06:38:08.068Z,1.10
2023-01-20T06:40:35.687Z,1.20
2023-01-20T06:43:03.322Z,1.10
2023-01-20T06:45:30.936Z,1.30
2023-01-20T06:47:58.531Z,1.27
2023-01-20T06:50:26.223Z,1.10
2023-01-20T06:52:55.896Z,1.53
2023-01-20T06:55:23.589Z,1.70
2023-01-20T06:57:51.268Z,1.20
2023-01-20T07:00:19.708Z,1.30
2023-01-20T07:02:49.554Z,1.40
2023-01-20T07:05:17.466Z,1.40
2023-01-20T07:07:45.178Z,1.30
2023-01-20T07:10:14.401Z,1.23
2023-01-20T07:12:42.084Z,1.40
2023-01-20T07:15:10.167Z,1.43
2023-01-20T07:17:37.785Z,1.70
2023-01-20T07:20:06.013Z,1.40
2023-01-20T07:22:33.659Z,1.37
2023-01-20T07:25:01.276Z,1.43
2023-01-20T07:27:30.275Z,1.40
2023-01-20T07:29:57.936Z,1.37
2023-01-20T07:32:25.664Z,1.43
2023-01-20T07:34:53.313Z,1.57
2023-01-20T07:37:20.925Z,1.23
2023-01-20T07:39:48.566Z,1.70
2023-01-20T07:42:16.210Z,1.40
2023-01-20T07:44:45.187Z,1.40
2023-01-20T07:47:12.829Z,1.13
2023-01-20T07:49:40.449Z,1.40
2023-01-20T07:52:08.068Z,1.43
2023-01-20T07:54:35.734Z,1.27
2023-01-20T07:57:03.391Z,1.50
2023-01-20T07:59:31.064Z,1.20
2023-01-20T08:02:00.174Z,1.20
2023-01-20T08:04:27.900Z,1.20
2023-01-20T08:06:55.585Z,1.50
2023-01-20T08:09:23.279Z,1.17
2023-01-20T08:11:50.943Z,1.60
2023-01-20T08:14:18.615Z,1.40
2023-01-20T08:16:46.354Z,1.37
2023-01-20T08:19:15.411Z,1.40
2023-01-20T08:21:43.073Z,1.60
2023-01-20T08:24:11.755Z,1.30
2023-01-20T08:26:39.404Z,1.43
2023-01-20T08:29:09.500Z,1.43
2023-01-20T08:31:37.963Z,1.23
2023-01-20T08:34:06.001Z,1.40
2023-01-20T08:36:37.450Z,1.30
2023-01-20T08:39:06.795Z,1.40
2023-01-20T08:41:36.858Z,1.50
2023-01-20T08:44:06.713Z,1.30
2023-01-20T08:46:35.353Z,1.57
2023-01-20T08:49:03.037Z,1.30
2023-01-20T08:51:33.094Z,1.50
2023-01-20T08:54:03.109Z,1.20
2023-01-20T08:56:31.190Z,1.43
2023-01-20T08:58:59.843Z,1.40
2023-01-20T09:01:30.049Z,1.60
2023-01-20T09:04:05.798Z,1.40
2023-01-20T09:06:39.086Z,1.27
2023-01-20T09:09:08.152Z,1.23
2023-01-20T09:11:35.843Z,1.53
2023-01-20T09:14:03.591Z,1.30
2023-01-20T09:16:31.539Z,1.47
2023-01-20T09:18:59.197Z,1.43
2023-01-20T09:21:26.825Z,1.30
2023-01-20T09:23:54.484Z,1.23
2023-01-20T09:26:35.391Z,1.40
2023-01-20T09:29:09.393Z,1.63
2023-01-20T09:31:38.400Z,1.30
2023-01-20T09:34:06.108Z,1.77
2023-01-20T09:36:33.791Z,1.50
2023-01-20T09:39:19.032Z,1.57
2023-01-20T09:42:07.516Z,1.10
2023-01-20T09:44:50.771Z,1.40
2023-01-20T09:47:30.756Z,1.20
2023-01-20T09:50:28.091Z,1.30
2023-01-20T09:53:05.778Z,1.47
2023-01-20T09:55:42.273Z,1.60
2023-01-20T09:58:17.631Z,1.40
2023-01-20T10:00:49.600Z,1.33
2023-01-20T10:03:22.028Z,1.33
2023-01-20T10:05:52.116Z,1.80
2023-01-20T10:08:24.903Z,1.47
2023-01-20T10:10:57.435Z,1.20
2023-01-20T10:13:33.103Z,1.47
2023-01-20T10:16:06.358Z,1.40
2023-01-20T10:18:42.041Z,1.40
2023-01-20T10:21:14.567Z,1.37
2023-01-20T10:23:47.613Z,1.07
2023-01-20T10:26:21.511Z,1.53
2023-01-20T10:28:54.109Z,1.30
2023-01-20T10:31:27.580Z,1.20
2023-01-20T10:33:59.393Z,1.50
2023-01-20T10:36:30.693Z,1.43
2023-01-20T10:39:02.735Z,1.23
2023-01-20T10:41:39.164Z,1.23
2023-01-20T10:44:12.774Z,1.40
2023-01-20T10:46:58.217Z,1.30
2023-01-20T10:49:48.855Z,1.50
2023-01-20T10:52:31.994Z,1.60
2023-01-20T10:55:10.934Z,1.50
2023-01-20T10:57:39.133Z,1.50
2023-01-20T11:00:25.657Z,1.50
2023-01-20T11:02:54.184Z,1.27
2023-01-20T11:05:25.432Z,1.33
2023-01-20T11:07:55.006Z,1.40
2023-01-20T11:10:25.295Z,1.40
2023-01-20T11:12:56.617Z,1.43
2023-01-20T11:15:30.353Z,1.87
2023-01-20T11:18:27.803Z,1.53
2023-01-20T11:20:58.592Z,1.40
2023-01-20T11:23:35.690Z,1.40
2023-01-20T11:26:09.893Z,1.40
2023-01-20T11:28:47.587Z,1.40
2023-01-20T11:31:17.677Z,1.50
2023-01-20T11:34:00.105Z,1.20
2023-01-20T11:36:28.310Z,1.80
2023-01-20T11:38:57.944Z,1.57
2023-01-20T11:41:27.650Z,1.23
2023-01-20T11:43:56.828Z,1.40
2023-01-20T11:46:31.793Z,1.40
2023-01-20T11:49:22.020Z,1.50
2023-01-20T11:51:52.832Z,1.37
2023-01-20T11:54:22.893Z,1.53
2023-01-20T11:56:54.901Z,1.57
2023-01-20T11:59:27.039Z,1.30
2023-01-20T12:02:02.586Z,1.00
2023-01-20T12:05:07.856Z,1.20
2023-01-20T12:07:40.015Z,1.40
2023-01-20T12:10:18.067Z,1.40
2023-01-20T12:12:50.588Z,1.50
2023-01-20T12:15:22.292Z,1.40
2023-01-20T12:17:57.833Z,1.67
2023-01-20T12:20:31.325Z,1.30
2023-01-20T12:23:20.833Z,1.47
2023-01-20T12:25:55.287Z,1.50
2023-01-20T12:28:26.422Z,1.17
2023-01-20T12:31:00.333Z,1.50
2023-01-20T12:33:31.800Z,1.37
2023-01-20T12:36:31.950Z,1.37
2023-01-20T12:39:13.465Z,1.37
2023-01-20T12:42:15.142Z,1.50
2023-01-20T12:44:48.776Z,1.60
2023-01-20T12:47:28.958Z,1.50
2023-01-20T12:50:22.967Z,1.20
2023-01-20T12:53:05.040Z,1.40
2023-01-20T12:55:49.764Z,1.40
2023-01-20T12:58:26.830Z,1.43
2023-01-20T13:01:13.268Z,1.50
2023-01-20T13:04:10.559Z,1.60
2023-01-20T13:07:04.267Z,1.63
2023-01-20T13:09:48.193Z,1.50
2023-01-20T13:12:39.878Z,1.67
2023-01-20T13:15:19.173Z,1.50
2023-01-20T13:18:00.913Z,1.47
2023-01-20T13:20:30.482Z,1.40
2023-01-20T13:23:05.136Z,1.50
2023-01-20T13:25:34.765Z,1.50
2023-01-20T13:28:03.547Z,1.70
2023-01-20T13:30:43.956Z,1.60
2023-01-20T13:33:17.827Z,1.40
2023-01-20T13:35:48.091Z,1.57
2023-01-20T13:38:25.369Z,1.40
2023-01-20T13:40:55.843Z,1.50
2023-01-20T13:43:48.509Z,1.80
2023-01-20T13:46:52.591Z,1.53
2023-01-20T13:49:29.872Z,1.50
2023-01-20T13:51:57.580Z,1.47
2023-01-20T13:54:49.048Z,1.50
2023-01-20T13:57:40.071Z,1.53
2023-01-20T14:00:19.306Z,1.23
2023-01-20T14:02:48.966Z,1.57
2023-01-20T14:05:34.385Z,1.30
2023-01-20T14:08:02.256Z,1.37
2023-01-20T14:10:31.276Z,1.50
2023-01-20T14:12:59.024Z,1.20
2023-01-20T14:15:32.038Z,1.57
2023-01-20T14:18:01.572Z,1.60
2023-01-20T14:20:30.595Z,1.60
2023-01-20T14:23:39.827Z,1.43
2023-01-20T14:26:13.636Z,1.87
2023-01-20T14:28:49.199Z,1.50
2023-01-20T14:31:23.862Z,1.63
2023-01-20T14:33:59.477Z,1.60
2023-01-20T14:36:30.648Z,1.40
2023-01-20T14:39:01.205Z,1.57
2023-01-20T14:41:45.724Z,1.37
2023-01-20T14:44:18.270Z,1.60
2023-01-20T14:46:47.622Z,1.50
2023-01-20T14:49:18.572Z,1.53
2023-01-20T14:51:48.451Z,1.50
2023-01-20T14:54:34.998Z,1.50
2023-01-20T14:57:13.494Z,1.70
2023-01-20T14:59:41.227Z,1.77
2023-01-20T15:02:19.145Z,1.90
2023-01-20T15:04:46.930Z,1.50
2023-01-20T15:07:20.340Z,1.80
2023-01-20T15:09:55.156Z,1.67
2023-01-20T15:12:42.378Z,1.60
2023-01-20T15:15:26.256Z,1.93
2023-01-20T15:18:18.987Z,1.70
2023-01-20T15:20:49.426Z,1.87
2023-01-20T15:23:23.077Z,1.60
2023-01-20T15:25:51.843Z,1.50
2023-01-20T15:28:27.622Z,1.77
2023-01-20T15:30:57.181Z,2.00
2023-01-20T15:33:25.786Z,1.50
2023-01-20T15:35:58.324Z,1.90
2023-01-20T15:38:28.559Z,1.80
2023-01-20T15:40:56.272Z,1.50
2023-01-20T15:43:25.355Z,1.53
2023-01-20T15:45:52.985Z,1.80
2023-01-20T15:48:24.338Z,1.60
2023-01-20T15:50:52.131Z,1.90
2023-01-20T15:53:19.877Z,1.77
2023-01-20T15:55:50.284Z,1.83
2023-01-20T15:58:26.025Z,1.70
2023-01-20T16:00:54.984Z,1.67
2023-01-20T16:03:23.127Z,1.80
2023-01-20T16:05:51.459Z,1.70
2023-01-20T16:08:21.380Z,1.97
2023-01-20T16:10:49.747Z,1.83
2023-01-20T16:13:17.768Z,2.27
2023-01-20T16:15:46.802Z,2.13
2023-01-20T16:18:16.346Z,2.10
2023-01-20T16:20:45.696Z,1.73
2023-01-20T16:23:14.456Z,1.73
2023-01-20T16:25:42.617Z,1.80
2023-01-20T16:28:14.452Z,1.67
2023-01-20T16:30:42.913Z,1.90
2023-01-20T16:33:20.938Z,1.73
2023-01-20T16:35:49.304Z,1.77
2023-01-20T16:38:18.951Z,1.80
2023-01-20T16:40:50.367Z,1.80
2023-01-20T16:43:18.653Z,1.80
2023-01-20T16:45:50.550Z,1.80
2023-01-20T16:48:19.685Z,1.83
2023-01-20T16:50:47.557Z,2.20
2023-01-20T16:53:15.812Z,1.87
2023-01-20T16:55:45.266Z,2.20
2023-01-20T16:58:13.065Z,1.70
2023-01-20T17:00:41.257Z,1.90
2023-01-20T17:03:09.588Z,1.83
2023-01-20T17:05:38.653Z,2.53
2023-01-20T17:08:06.594Z,2.70
2023-01-20T17:10:34.468Z,2.90
2023-01-20T17:13:02.158Z,3.07
2023-01-20T17:15:29.966Z,2.90
2023-01-20T17:18:00.305Z,2.77
2023-01-20T17:20:31.009Z,3.10
2023-01-20T17:23:00.115Z,2.97
2023-01-20T17:25:27.914Z,2.90
2023-01-20T17:27:55.665Z,2.97
2023-01-20T17:30:26.054Z,2.93
2023-01-20T17:32:54.030Z,2.90
2023-01-20T17:35:21.882Z,2.63
2023-01-20T17:37:49.713Z,2.67
2023-01-20T17:40:19.326Z,2.50
2023-01-20T17:42:47.152Z,2.80
2023-01-20T17:45:15.251Z,2.20
2023-01-20T17:47:42.888Z,2.30
2023-01-20T17:50:11.800Z,2.37
2023-01-20T17:52:39.760Z,2.20
2023-01-20T17:55:08.380Z,2.10
2023-01-20T17:57:37.452Z,2.40
2023-01-20T18:00:06.481Z,2.20
2023-01-20T18:02:34.232Z,2.03
2023-01-20T18:05:01.941Z,2.00
2023-01-20T18:07:29.679Z,2.20
2023-01-20T18:09:57.387Z,1.97
2023-01-20T18:12:25.835Z,2.30
2023-01-20T18:14:55.273Z,2.13
2023-01-20T18:17:22.923Z,1.90
2023-01-20T18:19:50.597Z,2.37
2023-01-20T18:22:18.935Z,2.10
2023-01-20T18:24:47.012Z,1.83
2023-01-20T18:27:14.924Z,2.20
2023-01-20T18:29:42.560Z,2.27
2023-01-20T18:32:11.570Z,2.20
2023-01-20T18:34:39.205Z,2.00
2023-01-20T18:37:06.871Z,1.60
2023-01-20T18:39:34.605Z,2.07
2023-01-20T18:42:02.227Z,2.17
2023-01-20T18:44:29.927Z,2.10
2023-01-20T18:46:57.553Z,2.17
2023-01-20T18:49:26.545Z,1.90
2023-01-20T18:51:54.232Z,2.30
2023-01-20T18:54:21.957Z,1.90
2023-01-20T18:56:49.746Z,1.73
2023-01-20T18:59:17.431Z,2.07
2023-01-20T19:01:45.382Z,2.27
2023-01-20T19:04:13.985Z,1.83
2023-01-20T19:06:45.807Z,2.00
2023-01-20T19:09:15.799Z,2.30
2023-01-20T19:11:43.526Z,2.20
2023-01-20T19:14:14.706Z,2.20
2023-01-20T19:16:45.353Z,2.27
2023-01-20T19:19:13.817Z,2.30
2023-01-20T19:21:43.109Z,2.03
2023-01-20T19:24:17.039Z,2.37
2023-01-20T19:26:44.709Z,2.20
2023-01-20T19:29:15.727Z,2.10
2023-01-20T19:31:43.539Z,2.20
2023-01-20T19:34:11.585Z,2.13
2023-01-20T19:36:39.570Z,2.67
2023-01-20T19:39:08.805Z,2.30
2023-01-20T19:41:36.624Z,2.27
2023-01-20T19:44:06.723Z,2.10
2023-01-20T19:46:36.513Z,2.20
2023-01-20T19:49:04.390Z,1.70
2023-01-20T19:51:32.388Z,2.50
2023-01-20T19:54:01.847Z,2.33
2023-01-20T19:56:32.959Z,2.40
2023-01-20T19:59:01.922Z,2.40
2023-01-20T20:01:31.675Z,2.20
2023-01-20T20:04:00.825Z,2.30
2023-01-20T20:06:30.922Z,2.57
2023-01-20T20:09:00.010Z,2.37
2023-01-20T20:11:27.976Z,2.07
2023-01-20T20:13:58.406Z,2.23
2023-01-20T20:16:27.796Z,2.50
2023-01-20T20:18:56.610Z,2.27
2023-01-20T20:21:25.137Z,2.03
2023-01-20T20:23:54.449Z,2.20
2023-01-20T20:26:23.524Z,2.23
2023-01-20T20:28:52.048Z,2.57
2023-01-20T20:31:22.272Z,2.20
2023-01-20T20:33:49.943Z,2.43
2023-01-20T20:36:17.627Z,2.27
2023-01-20T20:38:51.275Z,2.10
2023-01-20T20:41:19.212Z,2.20
2023-01-20T20:43:46.862Z,2.30
2023-01-20T20:46:16.685Z,2.47
2023-01-20T20:48:45.822Z,2.00
2023-01-20T20:51:15.688Z,2.37
2023-01-20T20:53:44.698Z,2.07
2023-01-20T20:56:14.625Z,2.17
2023-01-20T20:58:59.793Z,2.47
2023-01-20T21:01:29.718Z,2.10
2023-01-20T21:04:00.414Z,1.93
2023-01-20T21:06:28.968Z,2.30
2023-01-20T21:08:56.655Z,2.37
2023-01-20T21:11:25.013Z,2.30
2023-01-20T21:13:53.349Z,2.03
2023-01-20T21:16:23.348Z,2.03
2023-01-20T21:18:51.951Z,2.10
2023-01-20T21:21:21.243Z,2.40
2023-01-20T21:23:50.579Z,1.90
2023-01-20T21:26:18.631Z,2.00
2023-01-20T21:28:49.108Z,2.30
2023-01-20T21:31:19.178Z,1.97
2023-01-20T21:33:47.080Z,2.13
2023-01-20T21:36:14.729Z,2.43
2023-01-20T21:38:45.440Z,2.10
2023-01-20T21:41:14.591Z,1.90
2023-01-20T21:44:01.598Z,2.23
2023-01-20T21:46:31.067Z,2.10
2023-01-20T21:49:16.736Z,2.63
2023-01-20T21:52:01.944Z,2.20
2023-01-20T21:54:31.624Z,1.90
2023-01-20T21:57:00.616Z,2.27
2023-01-20T21:59:28.574Z,2.27
2023-01-20T22:01:56.241Z,2.27
2023-01-20T22:04:23.916Z,2.10
2023-01-20T22:06:51.605Z,2.07
2023-01-20T22:09:19.221Z,2.40
2023-01-20T22:11:48.205Z,2.30
2023-01-20T22:14:15.936Z,2.30
2023-01-20T22:16:43.605Z,2.00
2023-01-20T22:19:12.984Z,2.20
2023-01-20T22:21:40.908Z,2.17
2023-01-20T22:24:09.303Z,1.90
2023-01-20T22:26:36.972Z,1.93
2023-01-20T22:29:06.071Z,2.13
2023-01-20T22:31:34.451Z,2.17
2023-01-20T22:34:05.157Z,2.40
2023-01-20T22:36:33.738Z,2.07
2023-01-20T22:39:01.441Z,1.90
2023-01-20T22:41:29.167Z,2.23
2023-01-20T22:43:57.171Z,2.20
2023-01-20T22:46:28.023Z,2.17
2023-01-20T22:48:56.858Z,2.03
2023-01-20T22:51:26.069Z,2.07
2023-01-20T22:53:54.478Z,2.40
2023-01-20T22:56:24.148Z,2.10
2023-01-20T22:58:52.189Z,2.10
2023-01-20T23:01:22.547Z,2.30
2023-01-20T23:03:55.347Z,2.07
2023-01-20T23:06:23.404Z,2.00
2023-01-20T23:08:51.595Z,2.33
2023-01-20T23:11:21.747Z,2.40
2023-01-20T23:13:49.704Z,2.10
2023-01-20T23:16:19.274Z,1.87
2023-01-20T23:18:47.718Z,2.30
2023-01-20T23:21:16.779Z,2.20
2023-01-20T23:23:44.754Z,2.20
2023-01-20T23:26:15.531Z,2.07
2023-01-20T23:28:43.701Z,2.30
2023-01-20T23:31:13.948Z,2.07
2023-01-20T23:33:43.694Z,2.20
2023-01-20T23:36:15.669Z,2.40
2023-01-20T23:38:47.646Z,2.23
2023-01-20T23:41:16.257Z,2.10
2023-01-20T23:43:44.064Z,2.47
2023-01-20T23:46:12.101Z,2.60
2023-01-20T23:48:40.319Z,2.20
2023-01-20T23:51:08.520Z,2.03
2023-01-20T23:53:38.974Z,2.33
2023-01-20T23:56:13.372Z,2.20
2023-01-20T23:58:41.118Z,2.37
